Time;durP1;ratioP1;P1;durP2;ratioP2;P2;SDS_P1;SDS_P2;PMS_P1;PMS_P2;Temp;Humidity;BMP_temperature;BMP_pressure;BME280_temperature;BME280_humidity;BME280_pressure;Samples;Min_cycle;Max_cycle;Signal;HPM_P1;HPM_P2
2023/11/24 06:02:13;;;;;;;7.60;2.77;;;;;;;;;;5129187;23;20500;-75
2023/11/24 06:04:39;;;;;;;10.17;3.17;;;;;;;;;;4949267;29;20441;-76
2023/11/24 06:07:05;;;;;;;12.00;3.80;;;;;;;;;;4958472;29;20428;-75
2023/11/24 06:09:33;;;;;;;13.37;3.00;;;;;;;;;;4956114;28;20433;-74
2023/11/24 06:11:59;;;;;;;8.70;2.70;;;;;;;;;;4941864;29;20441;-75
2023/11/24 06:14:25;;;;;;;17.13;3.70;;;;;;;;;;4942478;29;20461;-75
2023/11/24 06:16:51;;;;;;;12.90;3.17;;;;;;;;;;4968172;23;21062;-75
2023/11/24 06:19:16;;;;;;;9.13;3.33;;;;;;;;;;4934903;29;20486;-75
2023/11/24 06:21:42;;;;;;;15.83;3.37;;;;;;;;;;4934734;29;20496;-75
2023/11/24 06:24:08;;;;;;;12.17;2.80;;;;;;;;;;4933487;29;20437;-75
2023/11/24 06:26:34;;;;;;;10.27;3.40;;;;;;;;;;4933254;29;20496;-75
2023/11/24 06:29:00;;;;;;;10.40;3.10;;;;;;;;;;4934578;29;20501;-75
2023/11/24 06:31:27;;;;;;;11.70;3.60;;;;;;;;;;4934467;29;20825;-74
2023/11/24 06:33:53;;;;;;;11.63;2.70;;;;;;;;;;4934457;29;20476;-75
2023/11/24 06:36:19;;;;;;;9.50;2.73;;;;;;;;;;4934268;29;20455;-74
2023/11/24 06:38:47;;;;;;;6.27;2.40;;;;;;;;;;4934294;29;20441;-74
2023/11/24 06:41:13;;;;;;;9.50;3.20;;;;;;;;;;4934333;29;20505;-74
2023/11/24 06:43:39;;;;;;;15.83;4.30;;;;;;;;;;4934563;29;20422;-74
2023/11/24 06:46:05;;;;;;;6.93;2.83;;;;;;;;;;4934009;29;20437;-74
2023/11/24 06:48:32;;;;;;;10.33;2.03;;;;;;;;;;4934252;29;20414;-74
2023/11/24 06:50:58;;;;;;;8.50;2.60;;;;;;;;;;4934457;29;20480;-74
2023/11/24 06:53:24;;;;;;;9.87;2.67;;;;;;;;;;4934349;29;20469;-74
2023/11/24 06:55:49;;;;;;;8.50;2.40;;;;;;;;;;4939133;29;20515;-75
2023/11/24 06:58:15;;;;;;;11.87;3.17;;;;;;;;;;4946023;29;20425;-75
2023/11/24 07:00:42;;;;;;;6.00;2.77;;;;;;;;;;4949852;29;20406;-75
2023/11/24 07:03:08;;;;;;;9.67;2.77;;;;;;;;;;4949695;29;20478;-75
2023/11/24 07:05:35;;;;;;;21.30;2.60;;;;;;;;;;4945333;29;20495;-75
2023/11/24 07:08:01;;;;;;;8.90;2.80;;;;;;;;;;4940490;29;20413;-74
2023/11/24 07:10:28;;;;;;;6.93;2.67;;;;;;;;;;4935529;29;20504;-74
2023/11/24 07:12:54;;;;;;;11.50;3.47;;;;;;;;;;4935867;29;20685;-74
2023/11/24 07:15:19;;;;;;;6.97;2.60;;;;;;;;;;4938132;29;20726;-74
2023/11/24 07:17:45;;;;;;;14.23;3.70;;;;;;;;;;4936312;29;20805;-75
2023/11/24 07:20:12;;;;;;;7.73;2.13;;;;;;;;;;4938690;29;20413;-74
2023/11/24 07:22:38;;;;;;;9.63;2.53;;;;;;;;;;4937600;29;20882;-74
2023/11/24 07:25:06;;;;;;;12.43;2.37;;;;;;;;;;4937719;29;20469;-74
2023/11/24 07:27:32;;;;;;;4.30;2.27;;;;;;;;;;4937081;29;20441;-75
2023/11/24 07:29:58;;;;;;;14.57;2.90;;;;;;;;;;4937235;29;20456;-74
2023/11/24 07:32:28;;;;;;;8.20;2.43;;;;;;;;;;4936879;29;20417;-74
2023/11/24 07:34:54;;;;;;;7.97;2.93;;;;;;;;;;4937139;29;20905;-74
2023/11/24 07:37:20;;;;;;;10.07;2.60;;;;;;;;;;4935522;29;20421;-74
2023/11/24 07:39:46;;;;;;;7.40;2.77;;;;;;;;;;4937209;29;20413;-75
2023/11/24 07:42:12;;;;;;;8.63;2.83;;;;;;;;;;4937170;29;20449;-75
2023/11/24 07:44:38;;;;;;;10.80;2.87;;;;;;;;;;4936949;29;20948;-74
2023/11/24 07:47:08;;;;;;;14.40;3.23;;;;;;;;;;4935094;29;20940;-75
2023/11/24 07:49:34;;;;;;;6.67;2.97;;;;;;;;;;4936613;29;20417;-75
2023/11/24 07:52:01;;;;;;;16.83;3.27;;;;;;;;;;4935584;29;20470;-74
2023/11/24 07:54:27;;;;;;;10.50;3.53;;;;;;;;;;4935265;29;20469;-75
2023/11/24 07:56:52;;;;;;;11.30;2.20;;;;;;;;;;4936474;29;20809;-75
2023/11/24 07:59:18;;;;;;;7.50;2.30;;;;;;;;;;4936773;29;20418;-74
2023/11/24 08:01:45;;;;;;;6.57;3.20;;;;;;;;;;4936878;29;20414;-75
2023/11/24 08:04:11;;;;;;;7.27;2.70;;;;;;;;;;4935533;29;20921;-75
2023/11/24 08:06:38;;;;;;;10.97;2.80;;;;;;;;;;4936187;29;20434;-74
2023/11/24 08:09:07;;;;;;;10.83;2.70;;;;;;;;;;4936609;29;20938;-73
2023/11/24 08:11:33;;;;;;;19.40;3.10;;;;;;;;;;4936614;29;20452;-73
2023/11/24 08:13:59;;;;;;;6.93;2.47;;;;;;;;;;4936554;29;20902;-73
2023/11/24 08:16:25;;;;;;;12.23;3.93;;;;;;;;;;4936211;29;20569;-74
2023/11/24 08:18:52;;;;;;;9.07;3.40;;;;;;;;;;4935335;29;20905;-73
2023/11/24 08:21:18;;;;;;;13.40;3.50;;;;;;;;;;4936505;29;20410;-75
2023/11/24 08:23:44;;;;;;;10.93;3.30;;;;;;;;;;4935309;29;20484;-73
2023/11/24 08:26:14;;;;;;;12.13;3.93;;;;;;;;;;4935907;29;20473;-73
2023/11/24 08:28:42;;;;;;;11.93;3.10;;;;;;;;;;4936433;29;20465;-73
2023/11/24 08:31:08;;;;;;;21.87;4.80;;;;;;;;;;4936262;29;20425;-73
2023/11/24 08:33:34;;;;;;;17.97;3.33;;;;;;;;;;4935067;29;20469;-74
2023/11/24 08:36:01;;;;;;;12.27;4.10;;;;;;;;;;4936034;29;20461;-75
2023/11/24 08:38:26;;;;;;;15.83;3.30;;;;;;;;;;4936357;29;20496;-75
2023/11/24 08:40:53;;;;;;;11.87;3.50;;;;;;;;;;4936120;29;20444;-75
2023/11/24 08:43:21;;;;;;;8.43;3.50;;;;;;;;;;4936129;29;20468;-75
2023/11/24 08:45:47;;;;;;;6.53;2.73;;;;;;;;;;4934601;29;20480;-75
2023/11/24 08:48:13;;;;;;;14.10;3.23;;;;;;;;;;4935783;29;20421;-75
2023/11/24 08:50:39;;;;;;;11.03;3.40;;;;;;;;;;4936031;29;20421;-75
2023/11/24 08:53:05;;;;;;;11.47;3.23;;;;;;;;;;4935891;29;20876;-75
2023/11/24 08:55:31;;;;;;;9.20;3.27;;;;;;;;;;4935986;29;20699;-75
2023/11/24 08:57:59;;;;;;;4.53;2.97;;;;;;;;;;4935637;29;20406;-73
2023/11/24 09:00:27;;;;;;;3.70;2.73;;;;;;;;;;4935677;29;20405;-74
2023/11/24 09:02:53;;;;;;;7.70;2.93;;;;;;;;;;4935635;29;20497;-74
2023/11/24 09:05:19;;;;;;;9.43;2.30;;;;;;;;;;4935603;29;20870;-74
2023/11/24 09:07:45;;;;;;;7.60;2.47;;;;;;;;;;4935515;29;20417;-74
2023/11/24 09:10:12;;;;;;;5.60;3.00;;;;;;;;;;4935427;29;20421;-74
2023/11/24 09:12:38;;;;;;;4.50;2.93;;;;;;;;;;4935337;29;20897;-74
2023/11/24 09:15:07;;;;;;;13.90;3.27;;;;;;;;;;4935005;29;20560;-74
2023/11/24 09:17:34;;;;;;;16.13;3.77;;;;;;;;;;4935329;29;20425;-74
2023/11/24 09:20:00;;;;;;;8.13;3.30;;;;;;;;;;4935352;29;20421;-74
2023/11/24 09:22:27;;;;;;;11.30;2.90;;;;;;;;;;4935364;29;20410;-74
2023/11/24 09:24:53;;;;;;;15.60;2.93;;;;;;;;;;4935313;29;20902;-74
2023/11/24 09:27:21;;;;;;;9.47;2.50;;;;;;;;;;4935069;29;20428;-74
2023/11/24 09:29:47;;;;;;;15.93;3.77;;;;;;;;;;4935466;29;20422;-74
2023/11/24 09:32:13;;;;;;;7.87;3.03;;;;;;;;;;4935236;29;20425;-74
2023/11/24 09:34:39;;;;;;;24.93;3.20;;;;;;;;;;4935341;29;20465;-74
2023/11/24 09:37:05;;;;;;;14.63;3.00;;;;;;;;;;4934944;29;20468;-74
2023/11/24 09:39:31;;;;;;;14.57;3.73;;;;;;;;;;4935059;29;20978;-74
2023/11/24 09:41:57;;;;;;;10.53;3.30;;;;;;;;;;4934911;29;20565;-74
2023/11/24 09:44:23;;;;;;;21.53;3.40;;;;;;;;;;4933862;29;20458;-74
2023/11/24 09:46:51;;;;;;;9.70;3.20;;;;;;;;;;4934782;29;20546;-75
2023/11/24 09:49:17;;;;;;;23.40;3.30;;;;;;;;;;4934909;29;20504;-75
2023/11/24 09:51:44;;;;;;;10.10;3.03;;;;;;;;;;4934888;29;20565;-74
2023/11/24 09:54:11;;;;;;;17.63;4.70;;;;;;;;;;4934852;29;20461;-74
2023/11/24 09:56:42;;;;;;;29.73;4.17;;;;;;;;;;4934480;29;20501;-75
2023/11/24 09:59:08;;;;;;;17.53;3.70;;;;;;;;;;4934807;29;20409;-75
2023/11/24 10:01:36;;;;;;;13.70;3.77;;;;;;;;;;4935269;29;20445;-74
2023/11/24 10:04:04;;;;;;;11.17;3.30;;;;;;;;;;4934617;29;20418;-75
2023/11/24 10:06:32;;;;;;;8.80;2.70;;;;;;;;;;4934252;29;20477;-75
2023/11/24 10:08:58;;;;;;;11.20;3.37;;;;;;;;;;4933285;29;20803;-75
2023/11/24 10:11:28;;;;;;;13.70;4.03;;;;;;;;;;4933226;29;20430;-75
2023/11/24 10:13:57;;;;;;;8.80;2.97;;;;;;;;;;4934077;29;20570;-74
2023/11/24 10:16:23;;;;;;;18.60;4.40;;;;;;;;;;4934174;29;20453;-74
2023/11/24 10:18:56;;;;;;;8.03;3.10;;;;;;;;;;4934515;29;20405;-74
2023/11/24 10:21:22;;;;;;;6.13;2.93;;;;;;;;;;4934531;29;20496;-74
2023/11/24 10:23:51;;;;;;;15.67;3.70;;;;;;;;;;4934556;29;20852;-74
2023/11/24 10:26:17;;;;;;;17.20;3.03;;;;;;;;;;4932457;29;20486;-74
2023/11/24 10:28:46;;;;;;;9.80;2.70;;;;;;;;;;4934527;29;20438;-74
2023/11/24 10:31:13;;;;;;;9.07;3.20;;;;;;;;;;4934433;29;20460;-75
2023/11/24 10:33:40;;;;;;;8.17;3.63;;;;;;;;;;4934182;29;20464;-75
2023/11/24 10:36:06;;;;;;;9.53;3.30;;;;;;;;;;4933963;29;20573;-75
2023/11/24 10:38:33;;;;;;;17.07;3.97;;;;;;;;;;4933051;29;20410;-74
2023/11/24 10:41:04;;;;;;;7.80;3.03;;;;;;;;;;4934160;29;20418;-74
2023/11/24 10:43:34;;;;;;;9.63;3.40;;;;;;;;;;4934511;29;20410;-75
2023/11/24 10:46:01;;;;;;;5.77;3.23;;;;;;;;;;4934366;29;20437;-75
2023/11/24 10:48:30;;;;;;;15.57;3.83;;;;;;;;;;4937023;29;20435;-75
2023/11/24 10:50:57;;;;;;;12.90;3.30;;;;;;;;;;4938950;29;20424;-74
2023/11/24 10:53:34;;;;;;;12.03;3.50;;;;;;;;;;4944139;29;20887;-75
2023/11/24 10:56:03;;;;;;;12.67;3.10;;;;;;;;;;4944820;29;20433;-74
2023/11/24 10:58:29;;;;;;;29.23;3.97;;;;;;;;;;4944644;29;20521;-74
2023/11/24 11:00:55;;;;;;;15.53;3.30;;;;;;;;;;4942038;29;20464;-74
2023/11/24 11:03:22;;;;;;;13.73;3.10;;;;;;;;;;4938172;29;20413;-75
2023/11/24 11:05:57;;;;;;;8.17;3.00;;;;;;;;;;4937839;29;20440;-75
2023/11/24 11:08:31;;;;;;;10.23;3.50;;;;;;;;;;4937496;29;20417;-74
2023/11/24 11:11:06;;;;;;;15.70;3.30;;;;;;;;;;4936367;29;20921;-75
2023/11/24 11:13:36;;;;;;;13.30;3.60;;;;;;;;;;4937456;29;20555;-74
2023/11/24 11:16:05;;;;;;;14.40;3.07;;;;;;;;;;4944778;29;20468;-74
2023/11/24 11:18:33;;;;;;;7.97;3.00;;;;;;;;;;4948734;29;20446;-74
2023/11/24 11:21:08;;;;;;;11.80;2.80;;;;;;;;;;4943762;29;20418;-75
2023/11/24 11:23:36;;;;;;;11.87;3.97;;;;;;;;;;4947488;29;20796;-75
2023/11/24 11:26:02;;;;;;;7.60;3.43;;;;;;;;;;4946593;29;20830;-76
2023/11/24 11:28:46;;;;;;;8.07;3.17;;;;;;;;;;4946126;29;20432;-75
2023/11/24 11:31:33;;;;;;;14.33;4.00;;;;;;;;;;4943861;29;20636;-75
2023/11/24 11:34:12;;;;;;;11.60;3.00;;;;;;;;;;4937793;29;20507;-75
2023/11/24 11:36:47;;;;;;;18.30;3.50;;;;;;;;;;4937259;29;20426;-75
2023/11/24 11:39:18;;;;;;;6.70;3.00;;;;;;;;;;4936150;29;20421;-75
2023/11/24 11:41:44;;;;;;;7.73;3.00;;;;;;;;;;4937590;29;20426;-77
2023/11/24 11:44:22;;;;;;;9.87;3.53;;;;;;;;;;4937686;29;20500;-75
2023/11/24 11:47:10;;;;;;;8.17;2.70;;;;;;;;;;4937152;29;20448;-75
2023/11/24 11:49:36;;;;;;;11.17;3.37;;;;;;;;;;4937639;29;20414;-76
2023/11/24 11:52:06;;;;;;;14.87;3.00;;;;;;;;;;4949970;29;20410;-76
2023/11/24 11:54:33;;;;;;;10.83;3.47;;;;;;;;;;4939029;29;20472;-76
2023/11/24 11:57:00;;;;;;;11.80;4.67;;;;;;;;;;4936805;29;20807;-74
2023/11/24 11:59:26;;;;;;;10.70;4.60;;;;;;;;;;4937108;29;20428;-74
2023/11/24 12:01:52;;;;;;;16.33;4.27;;;;;;;;;;4937526;29;20410;-74
2023/11/24 12:04:19;;;;;;;9.17;2.93;;;;;;;;;;4937111;29;20691;-74
2023/11/24 12:06:45;;;;;;;8.17;3.03;;;;;;;;;;4935445;29;20845;-75
2023/11/24 12:09:18;;;;;;;14.83;3.53;;;;;;;;;;4935622;29;20584;-74
2023/11/24 12:11:43;;;;;;;11.03;3.80;;;;;;;;;;4935400;29;20422;-75
2023/11/24 12:14:12;;;;;;;10.53;3.23;;;;;;;;;;4936775;29;20476;-75
2023/11/24 12:16:38;;;;;;;18.63;3.27;;;;;;;;;;4936345;29;20465;-75
2023/11/24 12:19:07;;;;;;;11.97;3.57;;;;;;;;;;4936842;29;20421;-75
2023/11/24 12:21:33;;;;;;;20.47;4.50;;;;;;;;;;4936944;29;20443;-75
2023/11/24 12:23:59;;;;;;;7.23;3.57;;;;;;;;;;4936619;29;20421;-75
2023/11/24 12:26:26;;;;;;;16.13;3.77;;;;;;;;;;4936185;29;20445;-75
2023/11/24 12:28:52;;;;;;;12.10;3.30;;;;;;;;;;4936410;29;20414;-75
2023/11/24 12:31:18;;;;;;;6.00;3.60;;;;;;;;;;4940760;29;20421;-74
2023/11/24 12:33:50;;;;;;;12.67;4.93;;;;;;;;;;4941242;29;20471;-75
2023/11/24 12:36:18;;;;;;;18.00;3.43;;;;;;;;;;4939935;29;20465;-74
2023/11/24 12:38:44;;;;;;;7.47;2.60;;;;;;;;;;4939933;29;20410;-75
2023/11/24 12:41:10;;;;;;;9.00;2.97;;;;;;;;;;4940889;29;20429;-75
2023/11/24 12:43:37;;;;;;;12.17;3.97;;;;;;;;;;4940596;29;20418;-75
2023/11/24 12:46:03;;;;;;;9.13;2.50;;;;;;;;;;4937045;29;20508;-75
2023/11/24 12:48:37;;;;;;;12.37;3.97;;;;;;;;;;4938060;29;20763;-74
2023/11/24 12:51:03;;;;;;;5.73;2.90;;;;;;;;;;4936154;29;20425;-75
2023/11/24 12:53:33;;;;;;;4.70;2.67;;;;;;;;;;4935968;29;20837;-75
2023/11/24 12:55:59;;;;;;;12.20;3.30;;;;;;;;;;4935695;29;20438;-74
2023/11/24 12:58:25;;;;;;;11.77;3.20;;;;;;;;;;4935492;29;20414;-76
2023/11/24 13:00:53;;;;;;;15.73;3.60;;;;;;;;;;4934524;29;20413;-74
2023/11/24 13:03:19;;;;;;;11.90;3.33;;;;;;;;;;4935981;29;20409;-74
2023/11/24 13:05:45;;;;;;;5.33;2.93;;;;;;;;;;4935836;29;20918;-74
2023/11/24 13:08:12;;;;;;;4.80;2.43;;;;;;;;;;4935650;29;20928;-74
2023/11/24 13:10:38;;;;;;;5.70;2.80;;;;;;;;;;4935643;29;20414;-74
2023/11/24 13:13:05;;;;;;;3.63;2.60;;;;;;;;;;4935538;29;20421;-74
2023/11/24 13:15:32;;;;;;;6.63;1.67;;;;;;;;;;4935231;29;20450;-75
2023/11/24 13:17:58;;;;;;;6.70;1.90;;;;;;;;;;4935074;29;20421;-75
2023/11/24 13:20:32;;;;;;;7.90;2.20;;;;;;;;;;4934296;29;20418;-75
2023/11/24 13:22:58;;;;;;;3.30;1.77;;;;;;;;;;4935557;29;20468;-74
2023/11/24 13:25:26;;;;;;;5.57;1.90;;;;;;;;;;4935258;29;20524;-74
2023/11/24 13:27:53;;;;;;;4.00;2.03;;;;;;;;;;4935001;29;20425;-74
2023/11/24 13:30:21;;;;;;;15.37;2.73;;;;;;;;;;4935325;29;20773;-76
2023/11/24 13:32:48;;;;;;;8.53;3.57;;;;;;;;;;4934889;29;20936;-74
2023/11/24 13:35:15;;;;;;;9.53;2.87;;;;;;;;;;4935271;29;20465;-74
2023/11/24 13:37:42;;;;;;;10.20;3.60;;;;;;;;;;4935087;29;20476;-74
2023/11/24 13:40:11;;;;;;;14.37;2.67;;;;;;;;;;4934901;29;20421;-74
2023/11/24 13:42:37;;;;;;;10.73;4.00;;;;;;;;;;4935063;29;20405;-74
2023/11/24 13:45:03;;;;;;;11.60;3.23;;;;;;;;;;4934895;29;20441;-74
2023/11/24 13:47:29;;;;;;;9.60;3.60;;;;;;;;;;4934764;29;20882;-75
2023/11/24 13:49:56;;;;;;;10.33;3.07;;;;;;;;;;4935210;29;20417;-74
2023/11/24 13:52:22;;;;;;;20.00;3.50;;;;;;;;;;4934895;29;20417;-75
2023/11/24 13:54:50;;;;;;;10.70;4.37;;;;;;;;;;4934615;29;20828;-75
2023/11/24 13:57:16;;;;;;;10.27;3.17;;;;;;;;;;4934833;29;20414;-75
2023/11/24 13:59:42;;;;;;;17.37;3.40;;;;;;;;;;4934818;29;20791;-75
2023/11/24 14:02:08;;;;;;;8.10;3.60;;;;;;;;;;4934683;29;20409;-75
2023/11/24 14:04:36;;;;;;;16.97;3.70;;;;;;;;;;4934704;29;20444;-75
2023/11/24 14:07:02;;;;;;;15.93;3.90;;;;;;;;;;4934484;29;20441;-75
2023/11/24 14:09:31;;;;;;;13.97;3.60;;;;;;;;;;4934565;29;20440;-75
2023/11/24 14:12:03;;;;;;;17.70;3.47;;;;;;;;;;4933098;29;20497;-75
2023/11/24 14:14:29;;;;;;;14.63;3.10;;;;;;;;;;4934704;29;20469;-74
2023/11/24 14:16:55;;;;;;;14.57;3.27;;;;;;;;;;4934170;29;20984;-74
2023/11/24 14:19:21;;;;;;;11.10;2.97;;;;;;;;;;4934604;29;20417;-75
2023/11/24 14:21:49;;;;;;;13.20;3.70;;;;;;;;;;4932570;29;20508;-75
2023/11/24 14:24:16;;;;;;;15.67;3.10;;;;;;;;;;4934653;29;20429;-75
2023/11/24 14:26:44;;;;;;;18.87;3.40;;;;;;;;;;4934221;29;20443;-75
2023/11/24 14:29:12;;;;;;;11.63;4.37;;;;;;;;;;4934397;29;20850;-75
2023/11/24 14:31:38;;;;;;;9.40;3.37;;;;;;;;;;4934654;29;20445;-75
2023/11/24 14:34:05;;;;;;;23.73;3.90;;;;;;;;;;4934259;29;20465;-75
2023/11/24 14:36:31;;;;;;;14.80;4.50;;;;;;;;;;4934160;29;20441;-75
2023/11/24 14:38:58;;;;;;;8.80;3.03;;;;;;;;;;4934150;29;20401;-76
2023/11/24 14:41:24;;;;;;;11.80;3.20;;;;;;;;;;4934435;29;20410;-74
2023/11/24 14:43:50;;;;;;;7.30;3.80;;;;;;;;;;4934485;29;20534;-75
2023/11/24 14:46:21;;;;;;;10.07;3.40;;;;;;;;;;4933956;29;20437;-74
2023/11/24 14:48:51;;;;;;;13.73;3.37;;;;;;;;;;4934713;29;20488;-74
2023/11/24 14:51:21;;;;;;;8.40;2.67;;;;;;;;;;4934582;29;20441;-74
2023/11/24 14:53:49;;;;;;;9.63;3.00;;;;;;;;;;4934403;29;20531;-75
2023/11/24 14:56:15;;;;;;;1.70;1.27;;;;;;;;;;4933673;29;20437;-75
2023/11/24 14:58:43;;;;;;;6.93;1.10;;;;;;;;;;4934053;29;20444;-74
2023/11/24 15:01:09;;;;;;;2.33;1.20;;;;;;;;;;4934137;29;20487;-75
2023/11/24 15:03:37;;;;;;;1.20;0.93;;;;;;;;;;4934101;29;20826;-75
2023/11/24 15:06:05;;;;;;;0.87;0.77;;;;;;;;;;4933873;29;20434;-76
2023/11/24 15:08:31;;;;;;;0.90;0.80;;;;;;;;;;4933945;29;20465;-76
2023/11/24 15:11:04;;;;;;;1.63;0.80;;;;;;;;;;4933974;29;20448;-76
2023/11/24 15:13:30;;;;;;;1.83;1.40;;;;;;;;;;4932836;29;20886;-76
2023/11/24 15:15:58;;;;;;;3.50;1.60;;;;;;;;;;4933919;29;20450;-75
2023/11/24 15:18:24;;;;;;;2.93;1.30;;;;;;;;;;4933884;29;20414;-75
2023/11/24 15:20:54;;;;;;;3.90;1.87;;;;;;;;;;4932731;29;20957;-75
2023/11/24 15:23:23;;;;;;;7.93;2.07;;;;;;;;;;4932550;29;20496;-75
2023/11/24 15:25:54;;;;;;;4.60;2.37;;;;;;;;;;4934065;29;20450;-75
2023/11/24 15:28:22;;;;;;;4.33;1.83;;;;;;;;;;4933797;29;20417;-74
2023/11/24 15:30:51;;;;;;;3.93;1.90;;;;;;;;;;4934371;29;20422;-75
2023/11/24 15:33:18;;;;;;;5.20;2.10;;;;;;;;;;4934647;29;20470;-75
2023/11/24 15:35:44;;;;;;;8.53;2.00;;;;;;;;;;4937128;29;20484;-74
2023/11/24 15:38:10;;;;;;;3.00;1.70;;;;;;;;;;4937398;29;20410;-74
2023/11/24 15:40:36;;;;;;;2.60;1.80;;;;;;;;;;4937215;29;20493;-74
2023/11/24 15:43:02;;;;;;;4.80;1.40;;;;;;;;;;4937130;29;20418;-74
2023/11/24 15:45:30;;;;;;;9.83;1.83;;;;;;;;;;4937174;29;20422;-75
2023/11/24 15:48:01;;;;;;;6.30;2.13;;;;;;;;;;4937132;29;20410;-75
2023/11/24 15:50:29;;;;;;;6.10;1.30;;;;;;;;;;4937518;29;20468;-75
2023/11/24 15:52:56;;;;;;;2.93;1.37;;;;;;;;;;4937223;29;20961;-75
2023/11/24 15:55:25;;;;;;;3.23;1.27;;;;;;;;;;4936075;29;20517;-74
2023/11/24 15:57:51;;;;;;;1.27;1.20;;;;;;;;;;4938716;29;20410;-74
2023/11/24 16:00:28;;;;;;;2.00;1.20;;;;;;;;;;4937482;29;20413;-74
2023/11/24 16:02:54;;;;;;;3.50;1.57;;;;;;;;;;4937101;29;20440;-75
2023/11/24 16:05:22;;;;;;;1.63;1.63;;;;;;;;;;4937094;29;20855;-74
2023/11/24 16:07:53;;;;;;;2.30;1.20;;;;;;;;;;4936765;29;20453;-74
2023/11/24 16:10:25;;;;;;;1.43;1.37;;;;;;;;;;4935640;29;20429;-74
2023/11/24 16:13:02;;;;;;;2.20;1.40;;;;;;;;;;4937023;29;20806;-75
2023/11/24 16:15:28;;;;;;;1.27;1.20;;;;;;;;;;4935225;29;20457;-75
2023/11/24 16:17:54;;;;;;;6.03;1.70;;;;;;;;;;4935281;29;20933;-75
2023/11/24 16:20:22;;;;;;;2.90;1.43;;;;;;;;;;4943942;29;20469;-74
2023/11/24 16:22:48;;;;;;;1.23;1.13;;;;;;;;;;4939265;29;20465;-75
2023/11/24 16:25:15;;;;;;;6.10;1.33;;;;;;;;;;4938021;29;20434;-75
2023/11/24 16:27:41;;;;;;;1.03;0.93;;;;;;;;;;4935169;29;20426;-74
2023/11/24 16:30:09;;;;;;;3.10;1.70;;;;;;;;;;4935186;29;20417;-74
2023/11/24 16:32:35;;;;;;;1.40;1.30;;;;;;;;;;4935852;29;20480;-74
2023/11/24 16:35:08;;;;;;;2.60;1.30;;;;;;;;;;4935762;29;20968;-75
2023/11/24 16:37:35;;;;;;;2.17;1.23;;;;;;;;;;4935990;29;20769;-74
2023/11/24 16:40:02;;;;;;;3.50;1.40;;;;;;;;;;4935972;29;20781;-74
2023/11/24 16:42:28;;;;;;;2.30;1.60;;;;;;;;;;4935856;29;20749;-74
2023/11/24 16:44:54;;;;;;;1.80;1.30;;;;;;;;;;4935538;29;20421;-74
2023/11/24 16:47:21;;;;;;;2.70;1.30;;;;;;;;;;4935412;29;20425;-74
2023/11/24 16:49:47;;;;;;;3.30;1.70;;;;;;;;;;4935651;29;20906;-74
2023/11/24 16:52:14;;;;;;;5.10;1.63;;;;;;;;;;4936036;29;20426;-74
2023/11/24 16:54:40;;;;;;;2.50;1.37;;;;;;;;;;4935580;29;20565;-74
2023/11/24 16:57:08;;;;;;;3.27;2.00;;;;;;;;;;4934044;29;20525;-75
2023/11/24 16:59:35;;;;;;;14.10;1.77;;;;;;;;;;4935588;29;20413;-74
2023/11/24 17:02:01;;;;;;;5.30;1.60;;;;;;;;;;4935592;29;20901;-74
2023/11/24 17:04:27;;;;;;;1.33;1.23;;;;;;;;;;4935841;29;20941;-74
2023/11/24 17:06:53;;;;;;;10.23;1.57;;;;;;;;;;4935082;29;20831;-76
2023/11/24 17:09:20;;;;;;;5.10;1.33;;;;;;;;;;4935289;29;20410;-74
2023/11/24 17:11:46;;;;;;;1.50;1.50;;;;;;;;;;4935358;29;20488;-74
2023/11/24 17:14:17;;;;;;;18.40;1.47;;;;;;;;;;4935118;29;20560;-75
2023/11/24 17:16:44;;;;;;;6.63;1.70;;;;;;;;;;4933360;29;20854;-75
2023/11/24 17:19:12;;;;;;;1.97;1.90;;;;;;;;;;4935038;29;20436;-75
2023/11/24 17:21:41;;;;;;;3.50;1.57;;;;;;;;;;4935154;29;20413;-75
2023/11/24 17:24:08;;;;;;;5.07;1.43;;;;;;;;;;4934931;29;20457;-75
2023/11/24 17:26:34;;;;;;;2.30;1.57;;;;;;;;;;4934877;29;20768;-75
2023/11/24 17:29:02;;;;;;;6.50;2.07;;;;;;;;;;4935276;29;20410;-75
2023/11/24 17:31:28;;;;;;;6.20;1.73;;;;;;;;;;4935206;29;20437;-75
2023/11/24 17:33:56;;;;;;;1.60;1.50;;;;;;;;;;4934933;29;20461;-75
2023/11/24 17:36:22;;;;;;;4.50;2.10;;;;;;;;;;4933507;29;20512;-75
2023/11/24 17:38:48;;;;;;;4.37;1.83;;;;;;;;;;4934802;29;20414;-75
2023/11/24 17:41:14;;;;;;;3.13;1.97;;;;;;;;;;4933351;29;20424;-75
2023/11/24 17:43:40;;;;;;;3.50;1.47;;;;;;;;;;4934924;29;20894;-74
2023/11/24 17:46:07;;;;;;;2.13;1.60;;;;;;;;;;4934477;29;20441;-74
2023/11/24 17:48:33;;;;;;;3.37;1.60;;;;;;;;;;4934989;29;20418;-74
2023/11/24 17:51:02;;;;;;;3.50;1.87;;;;;;;;;;4934981;29;20418;-75
2023/11/24 17:53:31;;;;;;;3.30;2.10;;;;;;;;;;4935057;29;20576;-76
2023/11/24 17:56:00;;;;;;;5.73;2.30;;;;;;;;;;4934639;29;20509;-75
2023/11/24 17:58:27;;;;;;;7.23;2.37;;;;;;;;;;4934805;29;20452;-75
2023/11/24 18:00:53;;;;;;;6.33;2.50;;;;;;;;;;4935171;29;20505;-76
2023/11/24 18:03:21;;;;;;;6.60;2.40;;;;;;;;;;4934934;29;20409;-75
2023/11/24 18:05:48;;;;;;;4.17;2.70;;;;;;;;;;4933488;29;20497;-75
2023/11/24 18:08:15;;;;;;;7.13;2.20;;;;;;;;;;4934638;29;20445;-75
2023/11/24 18:10:41;;;;;;;4.87;2.17;;;;;;;;;;4934836;29;20409;-76
2023/11/24 18:13:07;;;;;;;4.07;2.00;;;;;;;;;;4934293;29;20449;-76
2023/11/24 18:15:34;;;;;;;4.90;2.33;;;;;;;;;;4956733;23;20859;-77
2023/11/24 18:18:01;;;;;;;7.00;2.53;;;;;;;;;;4934573;29;20413;-75
2023/11/24 18:20:27;;;;;;;2.67;2.33;;;;;;;;;;4934524;29;20426;-76
2023/11/24 18:22:53;;;;;;;6.27;2.93;;;;;;;;;;4934329;29;20944;-76
2023/11/24 18:25:19;;;;;;;3.93;2.70;;;;;;;;;;4934687;29;20743;-76
2023/11/24 18:27:46;;;;;;;12.73;2.83;;;;;;;;;;4934073;29;20409;-75
2023/11/24 18:30:12;;;;;;;8.27;2.33;;;;;;;;;;4934742;29;20565;-76
2023/11/24 18:32:39;;;;;;;2.90;1.93;;;;;;;;;;4933494;29;20442;-76
2023/11/24 18:35:08;;;;;;;8.10;3.00;;;;;;;;;;4933229;29;20469;-75
2023/11/24 18:37:33;;;;;;;5.30;2.10;;;;;;;;;;4934695;29;20822;-77
2023/11/24 18:39:59;;;;;;;6.67;2.87;;;;;;;;;;4933366;29;20497;-77
2023/11/24 18:42:26;;;;;;;5.60;2.50;;;;;;;;;;4934799;29;20425;-77
2023/11/24 18:44:54;;;;;;;7.00;2.43;;;;;;;;;;4933587;29;20803;-77
2023/11/24 18:47:20;;;;;;;4.60;2.37;;;;;;;;;;4934512;29;20520;-77
2023/11/24 18:49:46;;;;;;;5.10;2.10;;;;;;;;;;4934994;29;20772;-77
2023/11/24 18:52:13;;;;;;;2.37;2.17;;;;;;;;;;4934837;29;20978;-77
2023/11/24 18:54:39;;;;;;;6.90;1.80;;;;;;;;;;4934449;29;20453;-77
2023/11/24 18:57:05;;;;;;;1.77;1.67;;;;;;;;;;4933500;29;20445;-77
2023/11/24 18:59:31;;;;;;;10.40;2.07;;;;;;;;;;4934904;29;20932;-77
2023/11/24 19:01:57;;;;;;;4.40;2.07;;;;;;;;;;4934199;29;20452;-77
2023/11/24 19:04:23;;;;;;;6.33;2.10;;;;;;;;;;4934034;29;20987;-77
2023/11/24 19:06:49;;;;;;;2.60;2.17;;;;;;;;;;4933754;29;20500;-77
2023/11/24 19:09:16;;;;;;;8.33;2.60;;;;;;;;;;4936270;29;20421;-77
2023/11/24 19:11:46;;;;;;;4.20;1.80;;;;;;;;;;4937526;29;20418;-77
2023/11/24 19:14:12;;;;;;;4.90;2.10;;;;;;;;;;4937566;29;20468;-77
2023/11/24 19:16:45;;;;;;;6.80;2.20;;;;;;;;;;4936720;29;20904;-77
2023/11/24 19:19:14;;;;;;;5.10;2.33;;;;;;;;;;4936050;29;20430;-77
2023/11/24 19:21:40;;;;;;;7.80;1.60;;;;;;;;;;4937503;29;20406;-77
2023/11/24 19:24:07;;;;;;;4.47;1.80;;;;;;;;;;4937375;29;20417;-77
2023/11/24 19:26:33;;;;;;;4.40;1.83;;;;;;;;;;4936337;29;20437;-77
2023/11/24 19:29:00;;;;;;;4.40;2.07;;;;;;;;;;4939228;29;20427;-77
2023/11/24 19:31:27;;;;;;;17.53;2.50;;;;;;;;;;4937476;29;20413;-77
2023/11/24 19:33:54;;;;;;;6.47;2.83;;;;;;;;;;4937408;29;20554;-77
2023/11/24 19:36:20;;;;;;;7.37;2.30;;;;;;;;;;4936854;29;20460;-77
2023/11/24 19:38:46;;;;;;;8.30;1.80;;;;;;;;;;4937173;29;20496;-77
2023/11/24 19:41:13;;;;;;;9.33;2.07;;;;;;;;;;4937211;29;20988;-77
2023/11/24 19:43:39;;;;;;;5.47;2.00;;;;;;;;;;4937261;29;20421;-77
2023/11/24 19:46:06;;;;;;;3.60;1.90;;;;;;;;;;4936851;29;20452;-77
2023/11/24 19:48:32;;;;;;;8.80;2.27;;;;;;;;;;4937085;29;20529;-77
2023/11/24 19:50:58;;;;;;;9.07;2.83;;;;;;;;;;4935492;29;20902;-77
2023/11/24 19:53:24;;;;;;;9.17;2.30;;;;;;;;;;4937355;29;20521;-77
2023/11/24 19:55:50;;;;;;;8.33;2.10;;;;;;;;;;4937613;29;20841;-77
2023/11/24 19:58:16;;;;;;;8.70;2.50;;;;;;;;;;4937614;29;20493;-76
2023/11/24 20:00:42;;;;;;;5.40;2.40;;;;;;;;;;4939063;29;20690;-77
2023/11/24 20:03:08;;;;;;;8.10;2.03;;;;;;;;;;4940136;29;20501;-77
2023/11/24 20:05:35;;;;;;;11.37;2.60;;;;;;;;;;4939864;29;20438;-77
2023/11/24 20:08:01;;;;;;;7.27;2.47;;;;;;;;;;4938820;29;20422;-77
2023/11/24 20:10:27;;;;;;;9.77;2.23;;;;;;;;;;4937545;29;20413;-76
2023/11/24 20:12:53;;;;;;;4.43;2.10;;;;;;;;;;4937393;29;20406;-77
2023/11/24 20:15:19;;;;;;;4.77;2.10;;;;;;;;;;4935405;29;20999;-77
2023/11/24 20:17:45;;;;;;;2.43;2.00;;;;;;;;;;4935498;29;20962;-77
2023/11/24 20:20:14;;;;;;;5.10;2.27;;;;;;;;;;4935629;29;20758;-77
2023/11/24 20:22:41;;;;;;;4.57;1.80;;;;;;;;;;4937021;29;20418;-77
2023/11/24 20:25:11;;;;;;;10.23;2.17;;;;;;;;;;4936430;29;20972;-77
2023/11/24 20:27:37;;;;;;;4.00;2.13;;;;;;;;;;4935114;29;20517;-77
2023/11/24 20:30:03;;;;;;;5.00;2.30;;;;;;;;;;4936467;29;20635;-77
2023/11/24 20:32:30;;;;;;;3.30;2.00;;;;;;;;;;4936829;29;20762;-77
2023/11/24 20:34:57;;;;;;;8.73;1.97;;;;;;;;;;4936502;29;20472;-77
2023/11/24 20:37:24;;;;;;;15.03;4.17;;;;;;;;;;4936069;29;20433;-77
2023/11/24 20:39:51;;;;;;;7.90;2.03;;;;;;;;;;4935056;29;20505;-77